Time;durP1;ratioP1;P1;durP2;ratioP2;P2;SDS_P1;SDS_P2;PMS_P1;PMS_P2;Temp;Humidity;BMP_temperature;BMP_pressure;BME280_temperature;BME280_humidity;BME280_pressure;Samples;Min_cycle;Max_cycle;Signal;HPM_P1;HPM_P2
2022/09/23 00:00:15;;;;;;;5.68;1.40;;;15.60;99.70;;;;;;4983286;28;20307;-79
2022/09/23 00:02:41;;;;;;;7.80;1.65;;;15.60;99.90;;;;;;4983147;28;20034;-79
2022/09/23 00:05:09;;;;;;;11.68;1.60;;;15.60;99.90;;;;;;4983081;28;20215;-79
2022/09/23 00:07:34;;;;;;;7.90;1.52;;;15.50;99.90;;;;;;4982891;28;20062;-79
2022/09/23 00:10:00;;;;;;;9.77;1.80;;;15.50;99.90;;;;;;4982946;28;20037;-79
2022/09/23 00:12:26;;;;;;;6.40;1.60;;;15.50;99.90;;;;;;4982658;28;20393;-79
2022/09/23 00:14:51;;;;;;;8.27;1.60;;;15.50;99.90;;;;;;4982961;28;20274;-80
2022/09/23 00:17:17;;;;;;;3.92;1.38;;;15.40;99.90;;;;;;4982735;28;20030;-79
2022/09/23 00:19:42;;;;;;;10.07;1.30;;;15.40;99.60;;;;;;4982957;28;20029;-79
2022/09/23 00:22:08;;;;;;;6.22;1.15;;;15.40;99.50;;;;;;4982852;28;20069;-79
2022/09/23 00:24:34;;;;;;;9.30;2.28;;;15.40;99.20;;;;;;4981891;28;20030;-79
2022/09/23 00:27:00;;;;;;;7.57;1.40;;;15.50;99.00;;;;;;4982499;28;20018;-79
2022/09/23 00:29:26;;;;;;;8.60;1.88;;;15.50;98.80;;;;;;4982589;28;20027;-79
2022/09/23 00:31:52;;;;;;;10.18;1.52;;;15.50;98.60;;;;;;4982690;28;20086;-79
2022/09/23 00:34:17;;;;;;;6.15;1.38;;;15.50;98.50;;;;;;4982578;28;20019;-79
2022/09/23 00:36:43;;;;;;;8.73;1.33;;;15.50;97.90;;;;;;4982617;28;20023;-79
2022/09/23 00:39:09;;;;;;;6.35;1.52;;;15.50;97.80;;;;;;4981624;28;20094;-79
2022/09/23 00:41:35;;;;;;;7.88;2.17;;;15.50;97.90;;;;;;4982263;28;20218;-79
2022/09/23 00:44:22;;;;;;;7.88;1.70;;;15.50;97.90;;;;;;4982038;28;20050;-79
2022/09/23 00:46:47;;;;;;;12.50;1.80;;;15.50;98.00;;;;;;4982415;28;20018;-79
2022/09/23 00:49:23;;;;;;;6.15;1.35;;;15.50;97.90;;;;;;4982021;28;20029;-79
2022/09/23 00:51:57;;;;;;;11.65;1.70;;;15.40;97.70;;;;;;4982310;28;20203;-79
2022/09/23 00:54:26;;;;;;;7.68;1.77;;;15.50;97.30;;;;;;4982627;28;20283;-79
2022/09/23 00:56:52;;;;;;;5.57;1.33;;;15.40;97.40;;;;;;4981939;28;20132;-79
2022/09/23 00:59:19;;;;;;;8.65;1.50;;;15.50;97.90;;;;;;4981967;28;20025;-79
2022/09/23 01:01:47;;;;;;;8.75;1.38;;;15.50;98.40;;;;;;4981897;28;20030;-79
2022/09/23 01:04:13;;;;;;;15.65;1.85;;;15.40;98.70;;;;;;4986232;28;20037;-78
2022/09/23 01:06:39;;;;;;;10.23;1.60;;;15.30;98.70;;;;;;4991495;28;20021;-79
2022/09/23 01:09:05;;;;;;;4.55;1.50;;;15.30;98.80;;;;;;4982356;28;20053;-79
2022/09/23 01:11:37;;;;;;;6.35;1.40;;;15.30;98.90;;;;;;4982204;28;20211;-79
2022/09/23 01:14:40;;;;;;;8.55;1.52;;;15.20;99.00;;;;;;4982230;28;20025;-78
2022/09/23 01:17:17;;;;;;;13.30;2.20;;;15.20;98.50;;;;;;4967095;28;20404;-79
2022/09/23 01:19:56;;;;;;;12.73;1.80;;;15.20;97.90;;;;;;4981795;28;20025;-78
2022/09/23 01:22:53;;;;;;;8.65;1.50;;;15.20;98.10;;;;;;4981293;28;20030;-79
2022/09/23 01:25:30;;;;;;;13.15;2.72;;;15.10;98.30;;;;;;4972767;28;20033;-78
2022/09/23 01:28:37;;;;;;;9.45;1.85;;;15.10;98.20;;;;;;4982038;28;20015;-79
2022/09/23 01:31:22;;;;;;;12.80;2.70;;;15.10;98.20;;;;;;4969880;28;20041;-79
2022/09/23 01:34:17;;;;;;;7.95;1.80;;;15.10;98.20;;;;;;4981634;28;20196;-79
2022/09/23 01:36:50;;;;;;;7.15;1.60;;;15.00;98.50;;;;;;4981648;28;20109;-79
2022/09/23 01:40:00;;;;;;;3.85;2.10;;;15.00;98.60;;;;;;4980726;28;20040;-79
2022/09/23 01:42:34;;;;;;;5.15;1.80;;;14.90;98.60;;;;;;4957440;28;20097;-78
2022/09/23 01:45:16;;;;;;;15.13;1.95;;;14.90;98.60;;;;;;4982281;28;20033;-79
2022/09/23 01:47:50;;;;;;;9.27;2.25;;;14.90;98.80;;;;;;4981908;28;20022;-78
2022/09/23 01:53:14;;;;;;;11.10;2.80;;;14.90;98.80;;;;;;4985156;28;20074;-79
2022/09/23 01:55:46;;;;;;;8.68;2.15;;;14.90;98.60;;;;;;4985017;28;20034;-78
2022/09/23 01:58:23;;;;;;;5.50;2.00;;;14.90;98.40;;;;;;4985022;28;20043;-78
2022/09/23 02:01:01;;;;;;;8.32;2.08;;;14.90;98.10;;;;;;4985208;28;20054;-78
2022/09/23 02:03:32;;;;;;;6.75;2.25;;;15.00;97.80;;;;;;4985249;28;20026;-78
2022/09/23 02:06:21;;;;;;;5.82;2.30;;;15.00;97.40;;;;;;4949617;29;20023;-79
2022/09/23 02:09:03;;;;;;;8.35;1.92;;;15.00;97.20;;;;;;4975301;28;20234;-78
2022/09/23 02:11:33;;;;;;;6.28;2.25;;;15.10;97.10;;;;;;4980190;28;20026;-78
2022/09/23 02:14:01;;;;;;;10.38;2.33;;;15.00;97.50;;;;;;4985117;28;20033;-79
2022/09/23 02:16:40;;;;;;;4.88;1.75;;;15.10;97.80;;;;;;4984662;28;20031;-78
2022/09/23 02:19:14;;;;;;;7.15;1.80;;;15.00;97.80;;;;;;4984565;28;20097;-78
2022/09/23 02:21:45;;;;;;;11.18;2.42;;;15.00;97.90;;;;;;4964459;28;20019;-78
2022/09/23 02:24:15;;;;;;;4.65;2.25;;;14.90;98.00;;;;;;4979838;28;20039;-78
2022/09/23 02:27:04;;;;;;;5.35;2.03;;;14.90;98.10;;;;;;4985196;28;20017;-78
2022/09/23 02:29:40;;;;;;;8.63;2.50;;;14.90;98.20;;;;;;4947127;28;20042;-78
2022/09/23 02:32:12;;;;;;;7.93;2.15;;;14.80;98.10;;;;;;4984130;28;20240;-78
2022/09/23 02:35:13;;;;;;;6.68;1.80;;;14.80;98.10;;;;;;4984622;28;20034;-78
2022/09/23 02:37:55;;;;;;;9.57;2.08;;;14.80;98.10;;;;;;4955070;28;20035;-79
2022/09/23 02:40:26;;;;;;;10.68;2.78;;;14.80;97.90;;;;;;4972961;28;20216;-79
2022/09/23 02:43:05;;;;;;;6.82;2.13;;;14.80;97.70;;;;;;4984506;28;20263;-78
2022/09/23 02:45:32;;;;;;;5.72;2.42;;;14.90;97.60;;;;;;4984408;28;20315;-78
2022/09/23 02:48:04;;;;;;;6.00;2.10;;;14.90;97.30;;;;;;4984496;28;20026;-78
2022/09/23 02:50:31;;;;;;;4.97;2.10;;;14.90;97.20;;;;;;4983944;28;20218;-78
2022/09/23 02:52:58;;;;;;;5.15;2.22;;;15.00;97.20;;;;;;4984395;28;20315;-79
2022/09/23 02:55:26;;;;;;;8.10;2.15;;;14.90;97.20;;;;;;4984125;28;20019;-78
2022/09/23 02:57:52;;;;;;;8.25;2.47;;;14.90;97.20;;;;;;4984254;28;20047;-79
2022/09/23 03:00:18;;;;;;;5.07;2.25;;;15.00;97.40;;;;;;4984576;28;20086;-78
2022/09/23 03:02:48;;;;;;;5.03;2.22;;;14.90;97.40;;;;;;4983249;28;20042;-78
2022/09/23 03:05:29;;;;;;;5.38;2.03;;;14.90;97.50;;;;;;4983912;28;20236;-78
2022/09/23 03:08:29;;;;;;;4.70;2.20;;;14.90;97.60;;;;;;4984379;28;20022;-78
2022/09/23 03:11:07;;;;;;;8.02;2.03;;;14.90;97.70;;;;;;4940812;28;20037;-79
2022/09/23 03:14:02;;;;;;;6.78;2.40;;;14.90;97.70;;;;;;4984200;28;20025;-79
2022/09/23 03:16:42;;;;;;;4.63;1.92;;;14.90;97.50;;;;;;4971608;28;20228;-79
2022/09/23 03:19:23;;;;;;;6.22;2.25;;;14.90;97.50;;;;;;4983953;28;20058;-78
2022/09/23 03:21:59;;;;;;;6.13;2.53;;;14.80;97.70;;;;;;4983884;28;20023;-79
2022/09/23 03:24:30;;;;;;;7.32;2.42;;;14.80;97.80;;;;;;4966646;28;20062;-78
2022/09/23 03:26:59;;;;;;;10.30;2.67;;;14.70;97.90;;;;;;4983729;28;20390;-78
2022/09/23 03:29:25;;;;;;;6.60;2.55;;;14.70;97.80;;;;;;4983301;28;20027;-78
2022/09/23 03:31:52;;;;;;;5.22;2.38;;;14.70;97.50;;;;;;4982778;28;20314;-79
2022/09/23 03:34:23;;;;;;;5.97;2.33;;;14.70;97.40;;;;;;4983198;28;20031;-79
2022/09/23 03:36:59;;;;;;;7.03;2.58;;;14.70;97.40;;;;;;4983245;28;20303;-79
2022/09/23 03:39:41;;;;;;;8.25;2.38;;;14.70;97.50;;;;;;4983560;28;20026;-79
2022/09/23 03:42:15;;;;;;;7.38;2.38;;;14.70;97.20;;;;;;4983851;28;20093;-78
2022/09/23 03:44:46;;;;;;;8.00;2.63;;;14.70;97.00;;;;;;4983328;28;20040;-78
2022/09/23 03:47:13;;;;;;;7.35;2.15;;;14.70;96.90;;;;;;4983462;28;20029;-79
2022/09/23 03:49:42;;;;;;;7.38;2.10;;;14.70;96.90;;;;;;4982625;28;20324;-79
2022/09/23 03:52:07;;;;;;;8.98;2.30;;;14.80;96.80;;;;;;4982485;28;20114;-78
2022/09/23 03:54:33;;;;;;;5.95;1.90;;;14.80;96.80;;;;;;4983021;28;20018;-78
2022/09/23 03:57:00;;;;;;;5.32;1.95;;;14.80;97.00;;;;;;4982632;28;20056;-78
2022/09/23 03:59:27;;;;;;;8.45;2.13;;;14.70;96.80;;;;;;4982443;28;20271;-78
2022/09/23 04:01:54;;;;;;;9.43;2.42;;;14.70;96.90;;;;;;4982886;28;20030;-78
2022/09/23 04:04:19;;;;;;;3.25;2.05;;;14.70;97.10;;;;;;4982835;28;20198;-79
2022/09/23 04:06:45;;;;;;;5.65;1.80;;;14.70;97.20;;;;;;4983086;28;20019;-78
2022/09/23 04:09:12;;;;;;;8.63;2.00;;;14.70;97.50;;;;;;4983379;28;20341;-78
2022/09/23 04:11:37;;;;;;;5.68;2.17;;;14.60;97.60;;;;;;4982958;28;20080;-78
2022/09/23 04:14:03;;;;;;;6.25;2.17;;;14.60;97.60;;;;;;4981745;28;20330;-78
2022/09/23 04:16:29;;;;;;;5.25;2.35;;;14.50;97.60;;;;;;4982852;28;20027;-78
2022/09/23 04:18:54;;;;;;;7.65;2.22;;;14.60;97.60;;;;;;4965616;28;20026;-79
2022/09/23 04:21:20;;;;;;;5.45;2.20;;;14.60;97.60;;;;;;4982391;28;20030;-78
2022/09/23 04:23:46;;;;;;;8.43;3.38;;;14.60;97.60;;;;;;4982295;28;20259;-79
2022/09/23 04:26:12;;;;;;;4.75;2.00;;;14.60;97.80;;;;;;4982579;28;20023;-79
2022/09/23 04:28:38;;;;;;;8.30;2.42;;;14.60;97.90;;;;;;4982216;28;20314;-79
2022/09/23 04:31:05;;;;;;;7.55;2.08;;;14.60;98.10;;;;;;4982821;28;20097;-79
2022/09/23 04:33:31;;;;;;;5.97;2.25;;;14.60;97.70;;;;;;4981882;28;20386;-79
2022/09/23 04:35:56;;;;;;;7.88;2.20;;;14.60;97.40;;;;;;4982458;28;20039;-78
2022/09/23 04:38:22;;;;;;;5.90;2.10;;;14.60;97.60;;;;;;4981980;28;20031;-78
2022/09/23 04:40:48;;;;;;;7.95;2.20;;;14.70;97.50;;;;;;4982512;28;20011;-78
2022/09/23 04:43:15;;;;;;;5.97;2.22;;;14.70;97.30;;;;;;4982212;28;20334;-78
2022/09/23 04:45:42;;;;;;;6.15;1.92;;;14.70;97.40;;;;;;4982738;28;20163;-78
2022/09/23 04:48:09;;;;;;;10.90;2.40;;;14.70;97.70;;;;;;4982311;28;20023;-78
2022/09/23 04:50:35;;;;;;;6.80;2.22;;;14.60;98.00;;;;;;4982105;28;20090;-78
2022/09/23 04:53:01;;;;;;;5.78;1.95;;;14.60;98.30;;;;;;4982799;28;20015;-78
2022/09/23 04:55:27;;;;;;;5.47;2.30;;;14.60;98.60;;;;;;4982145;28;20022;-78
2022/09/23 04:57:53;;;;;;;6.72;2.08;;;14.50;98.80;;;;;;4982129;28;20035;-78
2022/09/23 05:00:19;;;;;;;7.45;2.00;;;14.50;98.80;;;;;;4982418;28;20086;-78
2022/09/23 05:02:46;;;;;;;5.57;2.72;;;14.50;98.40;;;;;;4981967;28;20041;-78
2022/09/23 05:05:13;;;;;;;7.47;2.65;;;14.40;98.40;;;;;;4981960;28;20057;-78
2022/09/23 05:07:39;;;;;;;5.43;2.10;;;14.50;98.40;;;;;;4982286;28;20007;-78
2022/09/23 05:10:05;;;;;;;7.28;2.40;;;14.40;98.30;;;;;;4982536;28;20275;-79
2022/09/23 05:12:31;;;;;;;6.93;2.28;;;14.40;98.30;;;;;;4981984;28;20109;-78
2022/09/23 05:14:56;;;;;;;11.98;2.42;;;14.40;98.40;;;;;;4982310;28;20026;-78
2022/09/23 05:17:23;;;;;;;8.30;2.40;;;14.40;98.40;;;;;;4981397;28;20049;-79
2022/09/23 05:19:48;;;;;;;10.43;2.65;;;14.40;98.60;;;;;;4981601;28;20031;-78
2022/09/23 05:22:14;;;;;;;4.53;1.77;;;14.40;98.90;;;;;;4981918;28;20073;-78
2022/09/23 05:24:39;;;;;;;6.57;1.98;;;14.40;99.00;;;;;;4981464;28;20274;-78
2022/09/23 05:27:06;;;;;;;4.68;2.25;;;14.40;98.80;;;;;;4985663;28;20015;-82
2022/09/23 05:29:33;;;;;;;6.25;2.20;;;14.40;98.80;;;;;;4985114;28;20328;-81
2022/09/23 05:32:00;;;;;;;11.27;2.92;;;14.40;98.90;;;;;;4964228;28;20038;-82
2022/09/23 05:34:26;;;;;;;5.45;2.30;;;14.40;99.10;;;;;;4974053;28;20043;-81
2022/09/23 05:36:52;;;;;;;10.25;3.17;;;14.30;98.80;;;;;;4974283;28;20076;-82
2022/09/23 05:39:17;;;;;;;8.75;2.33;;;14.30;98.90;;;;;;4974001;28;20484;-81
2022/09/23 05:41:43;;;;;;;5.72;2.25;;;14.30;98.80;;;;;;4973669;28;20376;-81
2022/09/23 05:44:08;;;;;;;7.88;2.15;;;14.40;98.90;;;;;;4973821;28;20047;-82
2022/09/23 05:46:34;;;;;;;7.82;2.58;;;14.40;98.90;;;;;;4974291;28;20264;-81
2022/09/23 05:49:01;;;;;;;7.03;2.42;;;14.40;98.80;;;;;;4974110;28;20106;-82
2022/09/23 05:51:27;;;;;;;6.25;2.15;;;14.40;98.80;;;;;;4973569;28;20483;-81
2022/09/23 05:53:54;;;;;;;7.78;2.75;;;14.40;98.90;;;;;;4973740;28;20042;-83
2022/09/23 05:56:24;;;;;;;6.85;2.42;;;14.50;98.80;;;;;;4973884;28;20023;-83
2022/09/23 05:58:53;;;;;;;6.15;2.53;;;14.50;98.90;;;;;;4974084;28;20058;-82
2022/09/23 06:01:21;;;;;;;6.78;2.63;;;14.50;98.90;;;;;;4974051;28;20502;-81
2022/09/23 06:03:47;;;;;;;7.75;2.50;;;14.50;98.70;;;;;;4974233;28;20066;-82
2022/09/23 06:06:16;;;;;;;6.32;2.22;;;14.60;98.40;;;;;;4944611;29;20090;-82
2022/09/23 06:08:42;;;;;;;10.10;2.40;;;14.60;98.30;;;;;;4972628;28;20023;-82
2022/09/23 06:11:09;;;;;;;11.63;3.05;;;14.60;98.30;;;;;;4973705;28;20110;-82
2022/09/23 06:13:38;;;;;;;8.23;2.22;;;14.70;98.00;;;;;;4973554;28;20030;-82
2022/09/23 06:16:09;;;;;;;4.82;2.17;;;14.70;98.00;;;;;;4973644;28;20045;-82
2022/09/23 06:18:38;;;;;;;5.40;2.30;;;14.70;98.10;;;;;;4973598;28;20030;-82
2022/09/23 06:21:04;;;;;;;3.58;1.90;;;14.70;98.10;;;;;;4973828;28;20022;-82
2022/09/23 06:23:31;;;;;;;6.40;2.20;;;14.70;98.10;;;;;;4973491;28;20050;-82
2022/09/23 06:26:01;;;;;;;7.35;1.90;;;14.80;98.10;;;;;;4969668;28;20018;-86
2022/09/23 06:28:31;;;;;;;6.07;2.25;;;14.80;98.00;;;;;;4973821;28;20219;-83
2022/09/23 06:31:05;;;;;;;6.15;2.03;;;14.90;96.90;;;;;;4981851;28;20439;-81
2022/09/23 06:33:31;;;;;;;5.88;1.45;;;14.90;97.20;;;;;;4980956;28;20081;-82
2022/09/23 06:35:58;;;;;;;4.40;1.88;;;14.90;97.40;;;;;;4982351;28;20034;-82
2022/09/23 06:38:25;;;;;;;5.30;1.98;;;15.00;97.90;;;;;;4982828;28;20200;-82
2022/09/23 06:40:53;;;;;;;10.13;2.60;;;15.00;97.80;;;;;;4980807;28;20085;-83
2022/09/23 06:43:19;;;;;;;5.45;1.77;;;15.00;97.60;;;;;;4979979;28;20035;-82
2022/09/23 06:45:44;;;;;;;8.45;1.98;;;15.10;97.70;;;;;;4980227;28;20081;-83
2022/09/23 06:48:10;;;;;;;3.55;1.90;;;15.10;97.50;;;;;;4979301;28;20022;-83
2022/09/23 06:50:35;;;;;;;3.85;2.13;;;15.20;97.30;;;;;;4981939;28;20129;-84
2022/09/23 06:53:03;;;;;;;3.90;1.70;;;15.20;97.00;;;;;;4980553;28;20037;-83
2022/09/23 06:55:29;;;;;;;3.80;1.60;;;15.30;96.40;;;;;;4982292;28;20041;-83
2022/09/23 06:57:57;;;;;;;9.57;2.60;;;15.40;96.40;;;;;;4981248;28;20070;-83
2022/09/23 07:00:24;;;;;;;8.95;2.40;;;15.50;96.40;;;;;;4976617;28;20105;-83
2022/09/23 07:02:49;;;;;;;8.73;2.45;;;15.60;95.80;;;;;;4981195;28;20403;-81
2022/09/23 07:05:16;;;;;;;7.70;2.60;;;15.70;95.60;;;;;;4977772;28;20031;-82
2022/09/23 07:07:43;;;;;;;6.55;2.00;;;15.80;95.70;;;;;;4977149;28;20042;-82
2022/09/23 07:10:09;;;;;;;8.00;2.63;;;15.90;95.60;;;;;;4981367;28;20023;-82
2022/09/23 07:12:35;;;;;;;8.75;2.00;;;16.00;95.40;;;;;;4960799;28;20023;-82
2022/09/23 07:15:02;;;;;;;6.53;2.35;;;16.00;95.50;;;;;;4973466;28;20045;-81
2022/09/23 07:17:27;;;;;;;8.68;2.55;;;16.10;95.00;;;;;;4958938;28;20027;-81
2022/09/23 07:19:57;;;;;;;8.70;2.50;;;16.20;94.90;;;;;;4973849;28;20033;-81
2022/09/23 07:22:23;;;;;;;8.70;2.20;;;16.20;95.20;;;;;;4974383;28;20034;-81
2022/09/23 07:24:54;;;;;;;5.85;2.03;;;16.30;94.90;;;;;;4976229;28;20019;-81
2022/09/23 07:27:25;;;;;;;11.75;1.98;;;16.40;94.70;;;;;;4975779;28;20383;-82
2022/09/23 07:29:52;;;;;;;7.47;2.03;;;16.40;94.90;;;;;;4980418;28;20034;-77
2022/09/23 07:32:20;;;;;;;8.05;2.00;;;16.40;94.70;;;;;;4979311;28;20031;-76
2022/09/23 07:34:46;;;;;;;8.07;2.05;;;16.40;94.70;;;;;;4977757;28;20097;-75
2022/09/23 07:37:13;;;;;;;8.63;1.90;;;16.40;94.90;;;;;;4978756;28;20018;-76
2022/09/23 07:39:40;;;;;;;9.98;2.15;;;16.40;95.10;;;;;;4972783;28;20489;-74
2022/09/23 07:42:06;;;;;;;12.48;2.38;;;16.30;94.90;;;;;;4971396;28;20522;-74
2022/09/23 07:44:32;;;;;;;4.55;1.90;;;16.30;94.90;;;;;;4971841;28;20051;-74
2022/09/23 07:46:59;;;;;;;6.78;1.80;;;16.30;95.00;;;;;;4955233;28;20059;-74
2022/09/23 07:49:26;;;;;;;14.50;2.47;;;16.30;95.30;;;;;;4972488;28;20070;-74
2022/09/23 07:51:51;;;;;;;14.63;3.10;;;16.40;94.90;;;;;;4972357;28;20077;-74
2022/09/23 07:54:18;;;;;;;7.13;2.35;;;16.40;94.50;;;;;;4977863;28;20050;-75
2022/09/23 07:56:45;;;;;;;8.90;2.40;;;16.40;94.60;;;;;;4973825;28;20030;-74
2022/09/23 07:59:17;;;;;;;14.20;2.97;;;16.40;95.10;;;;;;4972552;28;20030;-78
2022/09/23 08:01:45;;;;;;;13.13;2.50;;;16.50;95.00;;;;;;4973070;28;20033;-75
2022/09/23 08:04:16;;;;;;;13.20;3.00;;;16.60;95.10;;;;;;4974222;28;20030;-74
2022/09/23 08:07:00;;;;;;;13.50;2.30;;;16.60;95.00;;;;;;4976238;28;20668;-75
2022/09/23 08:09:30;;;;;;;11.20;2.58;;;16.60;94.60;;;;;;4975132;28;20049;-74
2022/09/23 08:11:56;;;;;;;11.73;2.70;;;16.70;94.90;;;;;;4973401;28;20031;-75
2022/09/23 08:14:22;;;;;;;7.15;2.15;;;16.70;94.40;;;;;;4975764;28;20092;-78
2022/09/23 08:16:48;;;;;;;14.57;2.80;;;16.80;94.20;;;;;;4976143;28;20154;-75
2022/09/23 08:19:15;;;;;;;8.82;2.15;;;16.90;93.70;;;;;;4975396;28;20214;-75
2022/09/23 08:21:41;;;;;;;16.90;3.10;;;17.00;93.50;;;;;;4980526;28;20031;-75
2022/09/23 08:24:14;;;;;;;10.38;2.50;;;17.00;93.70;;;;;;4976202;28;20045;-75
2022/09/23 08:26:39;;;;;;;9.88;2.58;;;17.10;93.70;;;;;;4977089;28;20023;-76
2022/09/23 08:29:08;;;;;;;9.13;1.70;;;17.20;93.70;;;;;;4976507;28;20102;-74
2022/09/23 08:31:34;;;;;;;6.40;2.30;;;17.30;93.70;;;;;;4975243;28;20349;-75
2022/09/23 08:34:01;;;;;;;7.28;2.25;;;17.40;93.80;;;;;;4979802;28;20037;-76
2022/09/23 08:36:26;;;;;;;9.30;2.05;;;17.50;93.20;;;;;;4979186;28;20033;-76
2022/09/23 08:38:53;;;;;;;9.90;2.30;;;17.60;93.10;;;;;;4976102;28;20051;-75
2022/09/23 08:41:38;;;;;;;12.90;2.65;;;17.80;92.90;;;;;;4978117;28;20318;-76
2022/09/23 08:44:13;;;;;;;13.45;2.60;;;17.90;92.50;;;;;;4981049;28;20061;-75
2022/09/23 08:46:48;;;;;;;6.75;2.47;;;18.20;91.50;;;;;;4981736;28;20034;-76
2022/09/23 08:49:29;;;;;;;7.63;1.60;;;18.60;90.10;;;;;;4980281;28;20026;-76
2022/09/23 08:51:58;;;;;;;6.15;2.00;;;18.90;89.50;;;;;;4980344;28;20019;-76
2022/09/23 08:54:27;;;;;;;6.47;1.98;;;19.10;87.20;;;;;;4977693;28;20262;-76
2022/09/23 08:56:57;;;;;;;9.75;2.40;;;19.30;86.90;;;;;;4980803;28;20397;-75
2022/09/23 08:59:34;;;;;;;8.30;1.65;;;19.40;86.30;;;;;;4976172;28;20026;-75
2022/09/23 09:02:05;;;;;;;5.18;1.67;;;19.50;85.20;;;;;;4970396;28;20034;-76
2022/09/23 09:04:35;;;;;;;11.43;2.40;;;19.50;84.90;;;;;;4969791;28;20075;-75
2022/09/23 09:07:13;;;;;;;9.43;1.80;;;19.60;84.50;;;;;;4970528;28;20608;-76
2022/09/23 09:09:45;;;;;;;6.93;1.70;;;19.80;84.70;;;;;;4970992;28;20121;-76
2022/09/23 09:12:17;;;;;;;9.25;2.30;;;20.10;86.00;;;;;;4970370;28;20074;-75
2022/09/23 09:15:02;;;;;;;12.07;2.60;;;20.30;83.80;;;;;;4970433;28;20023;-76
2022/09/23 09:17:38;;;;;;;9.68;2.35;;;20.50;84.20;;;;;;4959513;28;20510;-78
2022/09/23 09:20:04;;;;;;;13.70;2.00;;;20.70;85.90;;;;;;4970719;28;20572;-78
2022/09/23 09:22:41;;;;;;;5.93;2.17;;;20.70;84.20;;;;;;4970923;28;20214;-76
2022/09/23 09:25:31;;;;;;;7.70;2.15;;;20.90;83.40;;;;;;4969673;28;20057;-76
2022/09/23 09:27:58;;;;;;;12.98;2.40;;;21.00;82.90;;;;;;4970437;28;20479;-76
2022/09/23 09:30:24;;;;;;;11.05;2.00;;;21.20;81.90;;;;;;4969899;28;20550;-76
2022/09/23 09:33:14;;;;;;;7.78;1.98;;;21.30;81.90;;;;;;4970171;28;20023;-76
2022/09/23 09:35:59;;;;;;;12.88;2.25;;;21.30;81.20;;;;;;4966961;28;20027;-76
2022/09/23 09:38:26;;;;;;;23.13;2.67;;;21.50;80.40;;;;;;4970362;28;20023;-76
2022/09/23 09:40:59;;;;;;;9.75;2.38;;;21.70;80.60;;;;;;4971269;28;20027;-76
2022/09/23 09:43:24;;;;;;;9.40;2.00;;;21.80;80.70;;;;;;4969806;28;20150;-76
2022/09/23 09:46:02;;;;;;;6.97;1.90;;;21.90;79.70;;;;;;4969444;28;20097;-78
2022/09/23 09:48:37;;;;;;;11.70;2.53;;;21.90;78.20;;;;;;4970191;28;20027;-77
2022/09/23 09:51:23;;;;;;;10.85;2.28;;;22.10;79.30;;;;;;4969984;28;20038;-76
2022/09/23 09:53:52;;;;;;;9.48;2.10;;;22.30;78.60;;;;;;4969835;28;20035;-77
2022/09/23 09:56:30;;;;;;;10.82;1.65;;;22.50;78.40;;;;;;4970010;28;20166;-76
2022/09/23 09:59:07;;;;;;;9.68;1.77;;;22.70;76.70;;;;;;4970008;28;20428;-77
2022/09/23 10:01:34;;;;;;;7.20;1.52;;;22.90;76.80;;;;;;4969814;28;20105;-77
2022/09/23 10:04:02;;;;;;;8.07;2.33;;;23.00;77.50;;;;;;4970223;28;20042;-76
2022/09/23 10:06:31;;;;;;;7.50;1.70;;;22.90;74.80;;;;;;4970231;28;20026;-77
2022/09/23 10:09:20;;;;;;;10.85;1.80;;;22.80;74.50;;;;;;4983961;28;20031;-77
2022/09/23 10:12:17;;;;;;;6.50;1.55;;;22.80;74.00;;;;;;4987016;28;20361;-77
2022/09/23 10:14:44;;;;;;;18.40;2.10;;;22.60;73.50;;;;;;4973468;28;20488;-78
2022/09/23 10:17:33;;;;;;;11.75;2.10;;;22.60;73.90;;;;;;4973478;28;20459;-77
2022/09/23 10:20:07;;;;;;;8.60;1.73;;;22.50;74.70;;;;;;4963011;28;20661;-77
2022/09/23 10:22:37;;;;;;;18.35;2.67;;;22.50;75.10;;;;;;4973199;28;20543;-78
2022/09/23 10:25:15;;;;;;;15.93;3.28;;;22.50;78.60;;;;;;4973340;28;20121;-77
2022/09/23 10:27:42;;;;;;;13.68;2.80;;;22.30;79.30;;;;;;4984664;28;20183;-78
2022/09/23 10:30:21;;;;;;;18.27;2.75;;;22.20;79.60;;;;;;4972896;28;20480;-78
2022/09/23 10:32:48;;;;;;;19.17;3.03;;;22.30;79.90;;;;;;4973340;28;20321;-77
2022/09/23 10:35:17;;;;;;;12.90;3.15;;;22.50;78.80;;;;;;4973213;28;20155;-77
2022/09/23 10:37:42;;;;;;;19.05;3.13;;;22.50;78.60;;;;;;4973149;28;20058;-78
2022/09/23 10:46:43;;;;;;;6.85;2.00;;;22.80;78.00;;;;;;4969819;28;20447;-77
2022/09/23 10:49:30;;;;;;;8.40;2.22;;;22.40;77.70;;;;;;4968631;28;20023;-78
2022/09/23 10:52:08;;;;;;;5.93;1.80;;;22.40;77.20;;;;;;4972113;28;20027;-78
2022/09/23 10:54:58;;;;;;;11.95;1.95;;;22.40;78.10;;;;;;4968005;28;20034;-77
2022/09/23 10:57:41;;;;;;;10.85;1.80;;;22.50;78.80;;;;;;4970934;28;20478;-75
2022/09/23 11:00:21;;;;;;;5.10;1.40;;;22.70;77.60;;;;;;4969420;28;20035;-75
2022/09/23 11:03:08;;;;;;;6.30;1.30;;;22.70;77.90;;;;;;4971179;28;20376;-75
2022/09/23 11:06:13;;;;;;;6.05;1.63;;;23.00;76.60;;;;;;4969915;28;20364;-77
2022/09/23 11:08:58;;;;;;;7.13;1.50;;;23.30;76.40;;;;;;4971815;28;20162;-75
2022/09/23 11:11:38;;;;;;;7.25;1.40;;;23.50;75.10;;;;;;4971028;28;20033;-75
2022/09/23 11:14:24;;;;;;;6.57;1.77;;;23.60;74.20;;;;;;4971423;28;20427;-75
2022/09/23 11:17:04;;;;;;;5.57;1.67;;;23.90;75.00;;;;;;4972772;28;20038;-75
2022/09/23 11:19:42;;;;;;;8.35;1.35;;;24.20;74.70;;;;;;4973413;28;20030;-75
2022/09/23 11:22:44;;;;;;;7.45;1.52;;;24.20;72.40;;;;;;4981896;28;20319;-76
2022/09/23 11:25:33;;;;;;;7.25;1.58;;;24.20;73.50;;;;;;4937997;28;20047;-75
2022/09/23 11:28:28;;;;;;;7.20;1.10;;;24.10;73.20;;;;;;4970380;28;20038;-76
2022/09/23 11:31:25;;;;;;;6.03;1.40;;;24.30;73.10;;;;;;4969399;28;20110;-76
2022/09/23 11:34:24;;;;;;;6.78;1.40;;;24.40;72.50;;;;;;4971612;28;20037;-76
2022/09/23 11:36:59;;;;;;;6.57;1.40;;;24.40;71.90;;;;;;4971115;28;20019;-76
2022/09/23 11:39:48;;;;;;;4.72;1.23;;;24.40;73.30;;;;;;4972964;28;20029;-76
2022/09/23 11:42:25;;;;;;;5.88;1.58;;;24.40;71.80;;;;;;4969959;28;20038;-75
2022/09/23 11:45:11;;;;;;;5.30;1.13;;;24.50;71.50;;;;;;4968601;28;20573;-76
2022/09/23 11:47:49;;;;;;;3.38;0.95;;;24.50;71.00;;;;;;4970180;28;20542;-79
2022/09/23 11:50:31;;;;;;;8.40;1.15;;;24.50;70.90;;;;;;4972552;28;20034;-78
2022/09/23 11:53:04;;;;;;;1.83;1.15;;;24.60;71.20;;;;;;4970467;28;20431;-79
2022/09/23 11:55:38;;;;;;;3.47;1.05;;;24.60;70.30;;;;;;4970339;28;20097;-79
2022/09/23 11:58:13;;;;;;;2.38;0.82;;;24.40;70.00;;;;;;4966952;28;20182;-79
2022/09/23 12:00:45;;;;;;;4.20;1.17;;;24.20;71.00;;;;;;4967641;28;20069;-79
2022/09/23 12:03:35;;;;;;;4.47;1.25;;;24.20;70.50;;;;;;4967295;28;20085;-79
2022/09/23 12:06:11;;;;;;;9.38;0.95;;;24.30;70.00;;;;;;4970860;28;20029;-80
2022/09/23 12:08:37;;;;;;;2.72;1.05;;;24.30;68.30;;;;;;4971640;28;20395;-79
2022/09/23 12:11:15;;;;;;;7.00;1.02;;;24.00;69.30;;;;;;4971232;28;20031;-79
2022/09/23 12:13:49;;;;;;;2.88;0.75;;;24.00;68.30;;;;;;4971352;28;20027;-79
2022/09/23 12:16:30;;;;;;;1.38;0.70;;;24.10;69.10;;;;;;4971026;28;20035;-79
2022/09/23 12:19:22;;;;;;;2.92;0.98;;;24.20;69.80;;;;;;4971175;28;20047;-79
2022/09/23 12:21:59;;;;;;;3.75;1.00;;;24.40;68.40;;;;;;4961758;28;20480;-79
2022/09/23 12:24:46;;;;;;;2.72;1.10;;;24.20;68.50;;;;;;4970865;28;20042;-79
2022/09/23 12:27:23;;;;;;;3.30;0.95;;;24.20;69.10;;;;;;4943579;29;20027;-79
2022/09/23 12:29:56;;;;;;;3.45;0.80;;;24.30;68.10;;;;;;4970726;28;20030;-79
2022/09/23 12:32:23;;;;;;;2.92;0.90;;;24.00;67.90;;;;;;4971323;28;20554;-79
2022/09/23 12:34:50;;;;;;;4.60;1.05;;;23.80;67.80;;;;;;4953540;28;20113;-79
2022/09/23 12:37:30;;;;;;;3.63;1.30;;;23.60;68.20;;;;;;4970610;28;20546;-79
2022/09/23 12:40:05;;;;;;;4.75;1.05;;;23.70;67.70;;;;;;4970525;28;20030;-79
2022/09/23 12:42:31;;;;;;;1.95;0.90;;;23.70;67.90;;;;;;4972961;28;20031;-79
2022/09/23 12:45:38;;;;;;;4.07;0.88;;;23.80;68.10;;;;;;4972843;28;20030;-79
2022/09/23 12:48:42;;;;;;;4.82;0.98;;;23.80;67.30;;;;;;4893964;29;20505;-78
2022/09/23 12:51:16;;;;;;;3.08;0.93;;;23.70;67.30;;;;;;4891939;29;20303;-79
2022/09/23 12:53:51;;;;;;;7.38;1.20;;;23.70;67.30;;;;;;4954714;28;20045;-79
2022/09/23 12:56:42;;;;;;;3.72;0.70;;;23.90;67.90;;;;;;4970532;28;20315;-79
2022/09/23 12:59:26;;;;;;;2.55;0.90;;;24.20;68.20;;;;;;4959029;28;20456;-79
2022/09/23 13:01:52;;;;;;;2.70;1.10;;;24.30;67.50;;;;;;4969957;28;20388;-79
2022/09/23 13:07:28;;;;;;;2.67;0.88;;;24.40;67.90;;;;;;4968201;28;20034;-79
2022/09/23 13:10:07;;;;;;;3.83;0.95;;;24.70;66.90;;;;;;4970653;28;20023;-75
2022/09/23 13:12:38;;;;;;;3.00;0.85;;;24.90;67.50;;;;;;4965722;28;20387;-78
2022/09/23 13:15:13;;;;;;;2.80;0.80;;;25.10;67.30;;;;;;4952421;28;20349;-78
2022/09/23 13:17:39;;;;;;;6.07;0.93;;;25.30;67.40;;;;;;4966586;28;20590;-78
2022/09/23 13:20:33;;;;;;;8.55;1.13;;;25.40;66.80;;;;;;4951879;28;20114;-78
2022/09/23 13:23:04;;;;;;;2.97;1.33;;;25.30;67.10;;;;;;4968941;28;20190;-78
2022/09/23 13:25:38;;;;;;;2.72;0.80;;;25.10;65.80;;;;;;4969129;28;20506;-78